This is the latest recevied weather packets stored in our database for station/object N3TTT-13. If no packets are shown the sender has not sent any weather packets the latest 1 day(s).
| Time | Temp. | Humidity | Pressure | Rain* | Wind** | Luminosity | Snow |
|---|---|---|---|---|---|---|---|
| 1778068248 | 18.89° C | 74% | 1011.4 hPa | 0 mm | 1.34 m/s, 124° | 83 W/m² | - |
| 1778067945 | 18.89° C | 74% | 1011.3 hPa | 0 mm | 1.34 m/s, 148° | 51 W/m² | - |
| 1778067643 | 18.33° C | 75% | 1011.1 hPa | 0 mm | 0.89 m/s, 231° | 60 W/m² | - |
| 1778067341 | 18.33° C | 75% | 1011 hPa | 0 mm | 0.89 m/s, 173° | 69 W/m² | - |
| 1778067038 | 18.33° C | 75% | 1011.5 hPa | 0 mm | 0.45 m/s, 261° | 62 W/m² | - |
| 1778066734 | 18.33° C | 76% | 1011.3 hPa | 0 mm | 0.89 m/s, 124° | 55 W/m² | - |
| 1778066432 | 18.33° C | 75% | 1011 hPa | 0 mm | 0.89 m/s, 222° | 57 W/m² | - |
| 1778066130 | 18.89° C | 74% | 1011.1 hPa | 0 mm | 1.34 m/s, 303° | 51 W/m² | - |
| 1778065827 | 19.44° C | 74% | 1011 hPa | 0 mm | 0.45 m/s, 200° | 75 W/m² | - |
| 1778065524 | 18.89° C | 74% | 1011.3 hPa | 0 mm | 0.89 m/s, 185° | 83 W/m² | - |
| 1778065221 | 18.89° C | 75% | 1011 hPa | 0 mm | 0.45 m/s, 237° | 82 W/m² | - |
| 1778064917 | 18.33° C | 75% | 1011.2 hPa | 0 mm | 0.45 m/s, 306° | 70 W/m² | - |
| 1778064615 | 18.33° C | 76% | 1010.9 hPa | 0 mm | 0 m/s | 47 W/m² | - |
| 1778064313 | 18.33° C | 76% | 1010.9 hPa | 0 mm | 2.24 m/s, 205° | 39 W/m² | - |
| 1778064010 | 17.78° C | 77% | 1011.1 hPa | 0 mm | 0.89 m/s, 207° | 33 W/m² | - |
| 1778063707 | 17.78° C | 78% | 1011.2 hPa | 0 mm | 0 m/s | 26 W/m² | - |
| 1778063404 | 17.78° C | 78% | 1011.3 hPa | 0 mm | 1.34 m/s, 206° | 19 W/m² | - |
| 1778063102 | 17.78° C | 78% | 1011.2 hPa | 0 mm | 0.89 m/s, 128° | 16 W/m² | - |
| 1778062799 | 17.22° C | 79% | 1011.2 hPa | 0 mm | 0.89 m/s, 231° | 12 W/m² | - |
| 1778062495 | 17.78° C | 79% | 1011.3 hPa | 0 mm | 0 m/s | 8 W/m² | - |
| 1778062193 | 17.78° C | 79% | 1011.2 hPa | 0 mm | 0.89 m/s, 230° | 4 W/m² | - |
| 1778061891 | 17.78° C | 79% | 1011.2 hPa | 0 mm | 0.45 m/s, 195° | 2 W/m² | - |
| 1778061589 | 17.78° C | 79% | 1011.1 hPa | 0 mm | 0.89 m/s, 201° | 0 W/m² | - |
| 1778061287 | 17.78° C | 79% | 1011.2 hPa | 0 mm | 0.89 m/s, 293° | 0 W/m² | - |
| 1778060983 | 17.78° C | 79% | 1011.1 hPa | 0 mm | 0.89 m/s, 235° | 0 W/m² | - |
* Rain latest hour (hover to see other rain measurements)
** Current wind speed in m/s (hover to see current wind gust speed)